Time;durP1;ratioP1;P1;durP2;ratioP2;P2;SDS_P1;SDS_P2;PMS_P1;PMS_P2;Temp;Humidity;BMP_temperature;BMP_pressure;BME280_temperature;BME280_humidity;BME280_pressure;Samples;Min_cycle;Max_cycle;Signal;HPM_P1;HPM_P2
2023/12/04 00:02:02;;;;;;;17.98;8.88;;;-2.40;99.90;;;;;;5055203;28;20049;-79
2023/12/04 00:04:29;;;;;;;17.52;8.52;;;-2.40;99.90;;;;;;5050967;28;20052;-79
2023/12/04 00:06:56;;;;;;;18.83;8.75;;;-2.40;99.90;;;;;;5051596;28;20487;-80
2023/12/04 00:09:24;;;;;;;16.25;8.07;;;-2.40;99.90;;;;;;5058154;28;20051;-79
2023/12/04 00:11:51;;;;;;;14.88;7.72;;;-2.40;99.90;;;;;;5051406;28;20452;-80
2023/12/04 00:14:19;;;;;;;15.75;7.38;;;-2.40;99.90;;;;;;5051910;28;20077;-81
2023/12/04 00:16:45;;;;;;;15.60;7.55;;;-2.40;99.90;;;;;;5049972;28;20083;-81
2023/12/04 00:19:12;;;;;;;14.18;6.90;;;-2.40;99.90;;;;;;5052283;28;20049;-77
2023/12/04 00:21:39;;;;;;;13.20;7.00;;;-2.40;99.90;;;;;;5053076;28;20128;-80
2023/12/04 00:24:06;;;;;;;12.55;6.97;;;-2.40;99.90;;;;;;5048399;28;20045;-83
2023/12/04 00:26:32;;;;;;;11.50;7.47;;;-2.40;99.90;;;;;;5053740;28;20049;-81
2023/12/04 00:28:59;;;;;;;13.90;6.35;;;-2.30;99.90;;;;;;5050652;28;20045;-79
2023/12/04 00:31:26;;;;;;;11.48;6.68;;;-2.30;99.90;;;;;;5052389;28;20563;-81
2023/12/04 00:33:53;;;;;;;10.07;6.15;;;-2.30;99.90;;;;;;5054603;28;20090;-80
2023/12/04 00:36:20;;;;;;;11.70;7.07;;;-2.30;99.90;;;;;;5050460;28;20037;-81
2023/12/04 00:38:47;;;;;;;16.45;7.35;;;-2.30;99.90;;;;;;5050115;28;20079;-77
2023/12/04 00:41:15;;;;;;;13.32;7.03;;;-2.30;99.90;;;;;;5054586;28;20078;-77
2023/12/04 00:43:42;;;;;;;13.27;6.93;;;-2.30;99.90;;;;;;5059581;28;20490;-80
2023/12/04 00:46:08;;;;;;;14.52;6.97;;;-2.30;99.90;;;;;;5051655;28;20053;-78
2023/12/04 00:48:35;;;;;;;11.48;7.03;;;-2.30;99.90;;;;;;5053526;28;20049;-81
2023/12/04 00:51:02;;;;;;;12.45;7.35;;;-2.30;99.90;;;;;;5022096;28;20042;-79
2023/12/04 00:53:29;;;;;;;14.93;6.97;;;-2.30;99.90;;;;;;5054745;28;20487;-81
2023/12/04 00:55:56;;;;;;;11.93;6.57;;;-2.30;99.90;;;;;;5049981;28;20134;-79
2023/12/04 00:58:22;;;;;;;14.88;7.30;;;-2.30;99.90;;;;;;5052017;28;20041;-79
2023/12/04 01:00:51;;;;;;;12.15;6.18;;;-2.30;99.90;;;;;;5046746;28;20114;-79
2023/12/04 01:03:18;;;;;;;11.27;6.80;;;-2.30;99.90;;;;;;5051260;28;20079;-78
2023/12/04 01:05:45;;;;;;;11.77;6.30;;;-2.30;99.90;;;;;;5049462;28;20049;-77
2023/12/04 01:08:12;;;;;;;11.10;6.15;;;-2.30;99.90;;;;;;5047100;28;20041;-81
2023/12/04 01:10:39;;;;;;;13.00;6.60;;;-2.30;99.90;;;;;;5048552;28;20515;-79
2023/12/04 01:13:06;;;;;;;12.30;6.53;;;-2.30;99.90;;;;;;5045793;28;20037;-81
2023/12/04 01:15:33;;;;;;;9.30;5.63;;;-2.30;99.90;;;;;;5031662;28;20118;-80
2023/12/04 01:18:00;;;;;;;10.60;6.45;;;-2.30;99.90;;;;;;5044008;28;20042;-81
2023/12/04 01:20:27;;;;;;;16.02;7.50;;;-2.40;99.90;;;;;;5049574;28;20051;-78
2023/12/04 01:22:54;;;;;;;15.00;7.25;;;-2.40;99.90;;;;;;5023281;28;20460;-81
2023/12/04 01:25:21;;;;;;;14.35;7.20;;;-2.40;99.90;;;;;;5050965;28;20140;-80
2023/12/04 01:27:47;;;;;;;13.60;7.38;;;-2.40;99.90;;;;;;5052516;28;20045;-79
2023/12/04 01:30:14;;;;;;;13.05;7.30;;;-2.40;99.90;;;;;;5046242;28;20038;-79
2023/12/04 01:32:41;;;;;;;11.20;6.50;;;-2.40;99.90;;;;;;5046494;28;20099;-80
2023/12/04 01:35:08;;;;;;;12.80;7.43;;;-2.40;99.90;;;;;;5025185;28;20501;-78
2023/12/04 01:37:36;;;;;;;14.45;7.35;;;-2.40;99.90;;;;;;5046112;28;20412;-83
2023/12/04 01:40:06;;;;;;;11.70;6.80;;;-2.40;99.90;;;;;;5048513;28;20124;-80
2023/12/04 01:42:33;;;;;;;12.13;6.78;;;-2.40;99.90;;;;;;5048427;28;20075;-80
2023/12/04 01:45:00;;;;;;;10.95;6.50;;;-2.30;99.90;;;;;;5049546;28;20056;-79
2023/12/04 01:47:27;;;;;;;14.23;7.65;;;-2.30;99.90;;;;;;5049779;28;20056;-82
2023/12/04 01:49:54;;;;;;;14.27;7.38;;;-2.30;99.90;;;;;;5045514;28;20041;-80
2023/12/04 01:52:21;;;;;;;12.52;7.35;;;-2.30;99.90;;;;;;5050553;28;20050;-79
2023/12/04 01:54:48;;;;;;;16.48;8.05;;;-2.30;99.90;;;;;;5051348;28;20049;-80
2023/12/04 01:57:15;;;;;;;13.18;7.22;;;-2.30;99.90;;;;;;5050598;28;20045;-81
2023/12/04 01:59:43;;;;;;;10.30;6.70;;;-2.20;99.90;;;;;;5050037;28;20055;-79
2023/12/04 02:02:10;;;;;;;12.70;6.75;;;-2.20;99.90;;;;;;5046850;28;20049;-81
2023/12/04 02:04:36;;;;;;;11.40;6.38;;;-2.20;99.90;;;;;;5039872;28;20053;-80
2023/12/04 02:07:04;;;;;;;10.23;6.15;;;-2.20;99.90;;;;;;5049280;28;20050;-81
2023/12/04 02:09:31;;;;;;;10.63;6.75;;;-2.20;99.90;;;;;;5033198;28;20489;-79
2023/12/04 02:11:59;;;;;;;12.38;7.18;;;-2.20;99.90;;;;;;5053259;28;20048;-79
2023/12/04 02:14:26;;;;;;;12.55;6.00;;;-2.20;99.90;;;;;;5031766;28;20069;-79
2023/12/04 02:16:55;;;;;;;10.80;6.40;;;-2.20;99.90;;;;;;5047489;28;20554;-81
2023/12/04 02:19:23;;;;;;;13.32;6.97;;;-2.20;99.90;;;;;;5047774;28;20045;-80
2023/12/04 02:21:49;;;;;;;13.27;7.40;;;-2.20;99.90;;;;;;5053417;28;20045;-79
2023/12/04 02:24:16;;;;;;;13.40;6.75;;;-2.20;99.90;;;;;;5037111;28;20049;-82
2023/12/04 02:26:50;;;;;;;12.88;7.45;;;-2.20;99.90;;;;;;5054593;28;20543;-79
2023/12/04 02:29:24;;;;;;;11.98;6.93;;;-2.20;99.90;;;;;;5056153;28;20056;-80
2023/12/04 02:31:53;;;;;;;11.90;7.07;;;-2.20;99.90;;;;;;5054158;28;20041;-81
2023/12/04 02:34:20;;;;;;;14.07;7.25;;;-2.20;99.90;;;;;;5038352;28;20441;-80
2023/12/04 02:36:49;;;;;;;13.48;7.40;;;-2.20;99.90;;;;;;5046138;28;20428;-79
2023/12/04 02:39:16;;;;;;;10.93;6.80;;;-2.20;99.90;;;;;;5032018;28;20140;-80
2023/12/04 02:41:42;;;;;;;9.88;6.13;;;-2.20;99.90;;;;;;5050664;28;20103;-78
2023/12/04 02:44:09;;;;;;;9.60;5.75;;;-2.20;99.90;;;;;;5050121;28;20045;-80
2023/12/04 02:46:36;;;;;;;10.88;5.55;;;-2.20;99.90;;;;;;5058202;28;20504;-78
2023/12/04 02:49:02;;;;;;;11.20;6.30;;;-2.20;99.90;;;;;;5050153;28;20107;-80
2023/12/04 02:51:29;;;;;;;9.35;5.90;;;-2.10;99.90;;;;;;5051844;28;20049;-82
2023/12/04 02:53:56;;;;;;;11.45;6.30;;;-2.10;99.90;;;;;;5036803;28;20044;-78
2023/12/04 02:56:22;;;;;;;9.07;5.45;;;-2.10;99.90;;;;;;5048271;28;20052;-79
2023/12/04 02:58:49;;;;;;;12.27;6.70;;;-2.10;99.90;;;;;;5031588;28;20566;-79
2023/12/04 03:01:16;;;;;;;12.90;6.47;;;-2.20;99.90;;;;;;5052667;28;20045;-80
2023/12/04 03:03:42;;;;;;;12.63;6.93;;;-2.20;99.90;;;;;;5048206;28;20049;-80
2023/12/04 03:06:09;;;;;;;11.77;6.78;;;-2.20;99.90;;;;;;5052660;28;20045;-80
2023/12/04 03:08:36;;;;;;;10.18;6.72;;;-2.20;99.90;;;;;;5025656;28;20050;-81
2023/12/04 03:11:03;;;;;;;12.88;6.63;;;-2.20;99.90;;;;;;5052077;28;20041;-80
2023/12/04 03:13:30;;;;;;;14.30;7.15;;;-2.20;99.90;;;;;;5051572;28;20069;-82
2023/12/04 03:15:57;;;;;;;12.65;6.82;;;-2.20;99.90;;;;;;5055011;28;20483;-81
2023/12/04 03:18:25;;;;;;;12.05;6.75;;;-2.20;99.90;;;;;;5054741;28;20053;-78
2023/12/04 03:20:53;;;;;;;10.27;6.28;;;-2.10;99.90;;;;;;5051384;28;20100;-80
2023/12/04 03:23:20;;;;;;;15.27;7.53;;;-2.10;99.90;;;;;;5056832;28;20049;-81
2023/12/04 03:25:46;;;;;;;10.10;6.95;;;-2.10;99.90;;;;;;5054318;28;20041;-79
2023/12/04 03:28:15;;;;;;;11.00;6.75;;;-2.10;99.90;;;;;;5052731;28;20048;-80
2023/12/04 03:30:45;;;;;;;11.02;6.57;;;-2.00;99.90;;;;;;5035876;28;20049;-81
2023/12/04 03:33:12;;;;;;;11.52;6.95;;;-2.00;99.90;;;;;;5055526;28;20102;-80
2023/12/04 03:35:39;;;;;;;12.77;7.57;;;-1.90;99.90;;;;;;5060042;28;20088;-80
2023/12/04 03:38:06;;;;;;;13.88;7.53;;;-1.90;99.90;;;;;;5043349;28;20037;-79
2023/12/04 03:40:33;;;;;;;14.20;7.82;;;-1.90;99.90;;;;;;5059360;28;20132;-77
2023/12/04 03:42:59;;;;;;;14.52;7.22;;;-1.90;99.90;;;;;;5065299;28;20048;-80
2023/12/04 03:45:26;;;;;;;13.43;7.55;;;-1.80;99.90;;;;;;5058892;28;20064;-77
2023/12/04 03:47:53;;;;;;;14.40;8.05;;;-1.80;99.90;;;;;;5061654;28;20061;-77
2023/12/04 03:50:20;;;;;;;15.52;8.85;;;-1.80;99.90;;;;;;5048399;28;20045;-78
2023/12/04 03:52:47;;;;;;;12.70;8.07;;;-1.80;99.90;;;;;;5062480;28;20045;-78
2023/12/04 03:55:14;;;;;;;15.98;8.50;;;-1.80;99.90;;;;;;5058987;28;20099;-80
2023/12/04 03:57:41;;;;;;;14.80;8.23;;;-1.70;99.90;;;;;;5061588;28;20045;-78
2023/12/04 04:00:10;;;;;;;14.63;8.30;;;-1.70;99.90;;;;;;5063439;28;20082;-79
2023/12/04 04:02:37;;;;;;;12.43;7.50;;;-1.70;99.90;;;;;;5061916;28;20045;-78
2023/12/04 04:05:04;;;;;;;17.00;8.55;;;-1.70;99.90;;;;;;5060296;28;20102;-79
2023/12/04 04:07:31;;;;;;;15.90;7.85;;;-1.70;99.90;;;;;;5048315;28;20044;-77
2023/12/04 04:09:58;;;;;;;13.27;8.00;;;-1.70;99.90;;;;;;5041740;28;20534;-81
2023/12/04 04:12:25;;;;;;;13.88;7.97;;;-1.60;99.90;;;;;;5048292;28;20136;-80
2023/12/04 04:14:51;;;;;;;13.85;8.00;;;-1.60;99.90;;;;;;5053627;28;20045;-81
2023/12/04 04:17:18;;;;;;;18.45;8.88;;;-1.60;99.90;;;;;;5049358;28;20099;-79
2023/12/04 04:19:45;;;;;;;15.00;8.57;;;-1.60;99.90;;;;;;5054545;28;20045;-81
2023/12/04 04:22:12;;;;;;;16.52;9.30;;;-1.50;99.90;;;;;;5051411;28;20095;-81
2023/12/04 04:24:38;;;;;;;16.83;8.52;;;-1.60;99.90;;;;;;5052214;28;20131;-79
2023/12/04 04:27:05;;;;;;;15.32;8.70;;;-1.50;99.90;;;;;;5061762;28;20044;-79
2023/12/04 04:29:32;;;;;;;22.00;10.07;;;-1.50;99.90;;;;;;5063625;28;20053;-79
2023/12/04 04:31:58;;;;;;;21.45;10.98;;;-1.50;99.90;;;;;;5057717;28;20164;-79
2023/12/04 04:34:25;;;;;;;16.63;9.75;;;-1.40;99.90;;;;;;5059476;28;20544;-82
2023/12/04 04:36:53;;;;;;;18.70;10.63;;;-1.40;99.90;;;;;;5043337;28;20051;-82
2023/12/04 04:39:20;;;;;;;18.17;9.30;;;-1.40;99.90;;;;;;5061081;28;20045;-80
2023/12/04 04:41:46;;;;;;;23.05;11.85;;;-1.40;99.90;;;;;;5061114;28;20052;-79
2023/12/04 04:44:13;;;;;;;20.98;11.45;;;-1.40;99.90;;;;;;5061679;28;20110;-79
2023/12/04 04:46:40;;;;;;;19.63;10.05;;;-1.40;99.90;;;;;;5052057;28;20045;-82
2023/12/04 04:49:06;;;;;;;18.30;10.32;;;-1.30;99.90;;;;;;5046497;28;20527;-82
2023/12/04 04:51:34;;;;;;;18.33;10.00;;;-1.30;99.90;;;;;;5036486;28;20049;-83
2023/12/04 04:54:01;;;;;;;20.05;11.32;;;-1.30;99.90;;;;;;5049158;28;20393;-81
2023/12/04 04:56:29;;;;;;;17.30;9.75;;;-1.40;99.90;;;;;;5054303;28;20049;-80
2023/12/04 04:58:56;;;;;;;24.90;11.70;;;-1.40;99.90;;;;;;5049865;28;20053;-82
2023/12/04 05:01:23;;;;;;;19.25;10.60;;;-1.40;99.90;;;;;;5037836;28;20095;-81
2023/12/04 05:03:51;;;;;;;17.02;9.98;;;-1.40;99.90;;;;;;5047188;28;20052;-81
2023/12/04 05:06:18;;;;;;;18.48;10.02;;;-1.30;99.90;;;;;;5047832;28;20251;-79
2023/12/04 05:08:45;;;;;;;20.23;10.18;;;-1.40;99.90;;;;;;5049077;28;20048;-82
2023/12/04 05:11:14;;;;;;;17.85;10.95;;;-1.30;99.90;;;;;;5044968;28;20127;-81
2023/12/04 05:13:41;;;;;;;17.45;11.18;;;-1.30;99.90;;;;;;5051467;28;20048;-82
2023/12/04 05:16:08;;;;;;;20.65;10.73;;;-1.30;99.90;;;;;;5049953;28;20041;-80
2023/12/04 05:18:35;;;;;;;20.63;11.60;;;-1.20;99.90;;;;;;5036998;28;20492;-82
2023/12/04 05:21:02;;;;;;;19.25;10.30;;;-1.20;99.90;;;;;;5032178;28;20076;-80
2023/12/04 05:23:29;;;;;;;18.58;11.68;;;-1.20;99.90;;;;;;5050727;28;20080;-82
2023/12/04 05:25:56;;;;;;;19.00;11.38;;;-1.20;99.90;;;;;;5041970;28;20048;-82
2023/12/04 05:28:22;;;;;;;22.77;13.07;;;-1.10;99.90;;;;;;5036689;28;20118;-83
2023/12/04 05:30:49;;;;;;;23.52;12.52;;;-1.10;99.90;;;;;;5046139;28;20085;-82
2023/12/04 05:33:16;;;;;;;24.38;13.00;;;-1.10;99.90;;;;;;5052239;28;20045;-80
2023/12/04 05:35:43;;;;;;;38.80;16.98;;;-1.10;99.90;;;;;;5052455;28;20491;-83
2023/12/04 05:38:10;;;;;;;50.10;24.20;;;-1.00;99.90;;;;;;5050976;28;20041;-81
2023/12/04 05:40:36;;;;;;;43.80;21.20;;;-1.00;99.90;;;;;;5039618;28;20046;-81
2023/12/04 05:43:03;;;;;;;44.15;21.65;;;-1.00;99.90;;;;;;5049544;28;20076;-82
2023/12/04 05:45:30;;;;;;;41.42;20.83;;;-1.00;99.90;;;;;;5045330;28;20095;-81
2023/12/04 05:47:57;;;;;;;34.53;17.48;;;-1.00;99.90;;;;;;5047037;28;20049;-80
2023/12/04 05:50:24;;;;;;;26.70;14.82;;;-1.00;99.90;;;;;;5045864;28;20052;-83
2023/12/04 05:52:51;;;;;;;25.50;13.95;;;-0.90;99.90;;;;;;5048287;28;20413;-82
2023/12/04 05:55:17;;;;;;;35.75;18.23;;;-0.90;99.90;;;;;;5046214;28;20052;-79
2023/12/04 05:57:44;;;;;;;54.97;27.77;;;-0.90;99.90;;;;;;5046874;28;20549;-81
2023/12/04 06:00:12;;;;;;;36.85;20.30;;;-0.90;99.90;;;;;;5049440;28;20049;-82
2023/12/04 06:02:41;;;;;;;33.50;18.90;;;-0.90;99.90;;;;;;5047371;28;20060;-81
2023/12/04 06:05:08;;;;;;;28.58;16.50;;;-0.90;99.90;;;;;;5050088;28;20102;-80
2023/12/04 06:07:38;;;;;;;34.20;17.33;;;-0.90;99.90;;;;;;5043467;28;20046;-80
2023/12/04 06:10:05;;;;;;;27.92;15.82;;;-0.90;99.90;;;;;;5051117;28;20048;-82
2023/12/04 06:12:32;;;;;;;27.25;14.57;;;-0.90;99.90;;;;;;5050705;28;20128;-83
2023/12/04 06:15:00;;;;;;;23.25;12.52;;;-0.80;99.90;;;;;;5052000;28;20060;-80
2023/12/04 06:17:27;;;;;;;22.13;12.18;;;-0.80;99.90;;;;;;5050019;28;20484;-80
2023/12/04 06:19:54;;;;;;;21.10;12.75;;;-0.80;99.90;;;;;;5038638;28;20071;-82
2023/12/04 06:22:21;;;;;;;23.00;12.90;;;-0.80;99.90;;;;;;5050882;28;20394;-81
2023/12/04 06:24:48;;;;;;;25.55;14.48;;;-0.80;99.90;;;;;;5050920;28;20045;-81
2023/12/04 06:27:20;;;;;;;26.58;15.93;;;-0.80;99.90;;;;;;5042511;28;20131;-81
2023/12/04 06:29:48;;;;;;;23.13;14.02;;;-0.80;99.90;;;;;;5035864;28;20045;-80
2023/12/04 06:32:19;;;;;;;22.67;13.98;;;-0.80;99.90;;;;;;5039225;28;20045;-80
2023/12/04 06:34:46;;;;;;;26.33;14.45;;;-0.80;99.90;;;;;;5052909;28;20091;-80
2023/12/04 06:37:14;;;;;;;26.15;14.60;;;-0.80;99.90;;;;;;5053787;28;20472;-82
2023/12/04 06:39:41;;;;;;;25.77;13.82;;;-0.80;99.90;;;;;;5051967;28;20057;-82
2023/12/04 06:42:09;;;;;;;26.27;15.40;;;-0.80;99.90;;;;;;5058159;28;20048;-82
2023/12/04 06:44:36;;;;;;;22.95;13.02;;;-0.80;99.90;;;;;;5040735;28;20119;-82
2023/12/04 06:47:04;;;;;;;21.67;12.43;;;-0.80;99.90;;;;;;5055943;28;20136;-82
2023/12/04 06:49:32;;;;;;;22.67;13.82;;;-0.90;99.90;;;;;;5047249;28;20053;-79
2023/12/04 06:52:00;;;;;;;27.73;15.50;;;-0.90;99.90;;;;;;5062589;28;20040;-80
2023/12/04 06:54:27;;;;;;;28.65;15.95;;;-1.00;99.90;;;;;;5038437;28;20416;-82
2023/12/04 06:56:53;;;;;;;25.38;15.65;;;-1.10;99.90;;;;;;5053188;28;20500;-80
2023/12/04 06:59:21;;;;;;;28.88;16.23;;;-1.20;99.90;;;;;;5036638;28;20094;-82
2023/12/04 07:01:47;;;;;;;27.52;16.30;;;-1.10;99.90;;;;;;5053193;28;20052;-80
2023/12/04 07:04:20;;;;;;;26.48;15.15;;;-1.10;99.90;;;;;;5056108;28;20052;-80
2023/12/04 07:06:48;;;;;;;33.15;21.33;;;-1.10;99.90;;;;;;5052398;28;20037;-81
2023/12/04 07:09:16;;;;;;;28.98;18.65;;;-1.10;99.90;;;;;;5057585;28;20084;-82
2023/12/04 07:11:44;;;;;;;31.58;18.33;;;-1.00;99.90;;;;;;5041214;28;20124;-81
2023/12/04 07:14:11;;;;;;;29.48;16.90;;;-1.00;99.90;;;;;;5056859;28;20045;-82
2023/12/04 07:16:49;;;;;;;26.48;16.45;;;-1.00;99.90;;;;;;5050881;28;20049;-78
2023/12/04 07:19:16;;;;;;;30.38;17.75;;;-0.90;99.90;;;;;;5048831;28;20052;-82
2023/12/04 07:21:43;;;;;;;28.90;16.92;;;-0.90;99.90;;;;;;5054920;28;20049;-81
2023/12/04 07:24:10;;;;;;;29.65;15.68;;;-0.90;99.90;;;;;;5036910;28;20444;-79
2023/12/04 07:26:38;;;;;;;28.92;17.15;;;-0.80;99.90;;;;;;5051753;28;20117;-82
2023/12/04 07:29:04;;;;;;;33.67;20.30;;;-0.90;99.90;;;;;;5032096;28;20049;-81
2023/12/04 07:31:31;;;;;;;29.67;18.58;;;-0.90;99.90;;;;;;5052345;28;20421;-80
2023/12/04 07:34:00;;;;;;;32.08;17.85;;;-0.90;99.90;;;;;;5052808;28;20041;-80
2023/12/04 07:36:27;;;;;;;28.55;16.80;;;-0.90;99.90;;;;;;5036955;28;20045;-81
2023/12/04 07:38:54;;;;;;;26.90;16.92;;;-1.00;99.90;;;;;;5030245;28;20041;-82
2023/12/04 07:41:21;;;;;;;27.83;17.80;;;-0.90;99.90;;;;;;5037023;28;20049;-82
2023/12/04 07:43:49;;;;;;;28.60;16.58;;;-0.90;99.90;;;;;;5046766;28;20084;-80
2023/12/04 07:46:15;;;;;;;28.63;16.70;;;-0.90;99.90;;;;;;5054131;28;20045;-80
2023/12/04 07:48:43;;;;;;;31.52;18.60;;;-0.90;99.90;;;;;;5047062;28;20049;-80
2023/12/04 07:51:11;;;;;;;29.92;18.92;;;-0.90;99.90;;;;;;5052789;28;20087;-81
2023/12/04 07:53:37;;;;;;;32.38;18.98;;;-0.80;99.90;;;;;;5048903;28;20052;-79
2023/12/04 07:56:05;;;;;;;34.53;20.45;;;-0.70;99.90;;;;;;5052373;28;20094;-83
2023/12/04 07:58:32;;;;;;;32.28;20.23;;;-0.70;99.90;;;;;;5051581;28;20041;-80
2023/12/04 08:00:59;;;;;;;27.33;18.52;;;-0.60;99.90;;;;;;5032835;28;20045;-82
2023/12/04 08:03:26;;;;;;;27.55;16.75;;;-0.60;99.90;;;;;;5033042;28;20064;-81
2023/12/04 08:05:53;;;;;;;27.85;16.27;;;-0.60;99.90;;;;;;5038269;28;20056;-80
2023/12/04 08:08:21;;;;;;;30.58;17.88;;;-0.60;99.90;;;;;;5032610;28;20416;-79
2023/12/04 08:10:48;;;;;;;33.38;18.50;;;-0.70;99.90;;;;;;5048223;28;20046;-80
2023/12/04 08:13:15;;;;;;;27.25;16.35;;;-0.70;99.90;;;;;;5034006;28;20045;-82
2023/12/04 08:15:46;;;;;;;29.50;17.75;;;-0.70;99.90;;;;;;5036177;28;20050;-78
2023/12/04 08:18:12;;;;;;;30.88;17.08;;;-0.60;99.90;;;;;;5052790;28;20152;-80
2023/12/04 08:20:39;;;;;;;27.20;17.05;;;-0.60;99.90;;;;;;5036781;28;20576;-82
2023/12/04 08:23:07;;;;;;;29.45;16.83;;;-0.50;99.90;;;;;;5035218;28;20508;-82
2023/12/04 08:25:38;;;;;;;26.77;16.17;;;-0.50;99.90;;;;;;5051257;28;20059;-80
2023/12/04 08:28:06;;;;;;;23.13;13.63;;;-0.50;99.90;;;;;;5050629;28;20508;-81
2023/12/04 08:30:32;;;;;;;26.77;14.13;;;-0.40;99.90;;;;;;5050570;28;20052;-80
2023/12/04 08:32:59;;;;;;;27.65;14.57;;;-0.50;99.90;;;;;;5048949;28;20049;-81
2023/12/04 08:35:26;;;;;;;22.00;13.82;;;-0.60;99.90;;;;;;5050286;28;20045;-81
2023/12/04 08:37:53;;;;;;;21.27;13.18;;;-0.60;99.90;;;;;;5049311;28;20512;-80
2023/12/04 08:40:20;;;;;;;21.45;12.70;;;-0.50;99.90;;;;;;5049959;28;20044;-79
2023/12/04 08:42:47;;;;;;;20.17;11.38;;;-0.40;99.90;;;;;;5047813;28;20049;-82
2023/12/04 08:45:14;;;;;;;19.73;12.43;;;-0.40;99.90;;;;;;5051285;28;20532;-81
2023/12/04 08:47:44;;;;;;;22.52;12.57;;;-0.30;99.90;;;;;;5027887;28;20461;-80
2023/12/04 08:50:11;;;;;;;30.60;18.75;;;-0.20;99.90;;;;;;5052815;28;20477;-81
2023/12/04 08:52:41;;;;;;;33.42;22.77;;;-0.20;99.90;;;;;;5045244;28;20076;-81
2023/12/04 08:55:08;;;;;;;;;;;-0.10;99.90;;;;;;5049184;28;20143;-84
2023/12/04 08:57:35;;;;;;;28.13;15.48;;;0.00;99.90;;;;;;5034446;28;20357;-82
2023/12/04 09:00:03;;;;;;;27.13;16.38;;;0.00;99.90;;;;;;5051970;28;20087;-81
2023/12/04 09:02:30;;;;;;;28.20;15.57;;;0.00;99.90;;;;;;5051770;28;20055;-80
2023/12/04 09:04:58;;;;;;;28.75;16.80;;;0.00;99.90;;;;;;5039038;28;20409;-80
2023/12/04 09:07:25;;;;;;;25.67;15.88;;;0.10;99.90;;;;;;5048197;28;20053;-78
2023/12/04 09:10:12;;;;;;;26.58;15.07;;;0.10;99.90;;;;;;5038242;28;20066;-81
2023/12/04 09:12:56;;;;;;;28.35;16.55;;;0.20;99.90;;;;;;5052897;28;20052;-82
2023/12/04 09:15:23;;;;;;;28.80;16.58;;;0.30;99.90;;;;;;5049709;28;20228;-80
2023/12/04 09:17:49;;;;;;;24.98;15.65;;;0.30;99.90;;;;;;5051246;28;20109;-82
2023/12/04 09:20:16;;;;;;;27.58;15.90;;;0.40;99.90;;;;;;5031338;28;20047;-82
2023/12/04 09:22:43;;;;;;;34.72;17.10;;;0.40;99.90;;;;;;5058374;28;20064;-80
2023/12/04 09:25:18;;;;;;;30.90;17.33;;;0.40;99.90;;;;;;5050268;28;20053;-81
2023/12/04 09:27:46;;;;;;;30.67;17.92;;;0.40;99.90;;;;;;5051328;28;20113;-78
2023/12/04 09:30:13;;;;;;;29.35;19.00;;;0.50;99.90;;;;;;5050043;28;20417;-79
2023/12/04 09:32:40;;;;;;;29.90;18.42;;;0.50;99.90;;;;;;5050290;28;20048;-82
2023/12/04 09:35:07;;;;;;;23.88;17.10;;;0.60;99.90;;;;;;5051279;28;20044;-80
2023/12/04 09:37:34;;;;;;;27.35;17.10;;;0.60;99.90;;;;;;5047803;28;20422;-82
2023/12/04 09:40:01;;;;;;;26.98;17.40;;;0.70;99.90;;;;;;5052456;28;20041;-81
2023/12/04 09:42:30;;;;;;;30.50;17.25;;;0.80;99.90;;;;;;5049209;28;20055;-83
2023/12/04 09:44:58;;;;;;;29.70;16.73;;;0.80;99.90;;;;;;5038808;28;20144;-81
2023/12/04 09:47:26;;;;;;;31.85;17.55;;;0.90;99.90;;;;;;5048212;28;20052;-83
2023/12/04 09:49:54;;;;;;;30.00;16.33;;;0.90;99.90;;;;;;5054179;28;20049;-83
2023/12/04 09:52:22;;;;;;;29.25;16.88;;;1.00;99.90;;;;;;5055888;28;20045;-81
2023/12/04 09:54:51;;;;;;;26.10;16.13;;;1.00;99.90;;;;;;5054569;28;20049;-79
2023/12/04 09:57:18;;;;;;;27.52;17.58;;;1.00;99.90;;;;;;5051348;28;20094;-81
2023/12/04 09:59:45;;;;;;;41.05;20.45;;;1.00;99.90;;;;;;5053032;28;20063;-82
2023/12/04 10:02:12;;;;;;;41.70;21.38;;;1.00;99.90;;;;;;5049015;28;20095;-82
2023/12/04 10:04:41;;;;;;;46.17;22.63;;;1.00;99.90;;;;;;5048490;28;20049;-82
2023/12/04 10:07:07;;;;;;;43.67;23.27;;;1.00;99.90;;;;;;5047605;28;20481;-82
2023/12/04 10:09:34;;;;;;;46.15;22.20;;;1.00;99.90;;;;;;5049185;28;20049;-81
2023/12/04 10:12:01;;;;;;;41.25;21.45;;;1.10;99.90;;;;;;5050237;28;20047;-83
2023/12/04 10:14:28;;;;;;;38.22;19.52;;;1.10;99.90;;;;;;5033519;28;20049;-81
2023/12/04 10:16:55;;;;;;;39.28;20.40;;;1.10;99.90;;;;;;5052346;28;20437;-81
2023/12/04 10:19:27;;;;;;;36.65;17.85;;;1.20;99.90;;;;;;5047770;28;20075;-84
2023/12/04 10:21:56;;;;;;;12.23;7.88;;;1.20;99.90;;;;;;5037760;28;20077;-83
2023/12/04 10:24:29;;;;;;;15.23;6.57;;;1.30;99.90;;;;;;5049831;28;20049;-80
2023/12/04 10:26:57;;;;;;;8.85;4.32;;;1.40;99.90;;;;;;5050956;28;20053;-81
2023/12/04 10:29:28;;;;;;;4.50;2.60;;;1.50;99.90;;;;;;5049405;28;20045;-83
2023/12/04 10:31:55;;;;;;;4.47;2.47;;;1.60;99.90;;;;;;5051622;28;20071;-82
2023/12/04 10:34:25;;;;;;;7.55;2.33;;;1.70;99.90;;;;;;5048721;28;20077;-81
2023/12/04 10:36:53;;;;;;;2.78;1.98;;;1.80;99.90;;;;;;5054959;28;20045;-83
2023/12/04 10:39:20;;;;;;;4.50;2.05;;;1.90;99.90;;;;;;5050498;28;20045;-85
2023/12/04 10:41:59;;;;;;;2.20;1.70;;;2.00;99.90;;;;;;5047806;28;20080;-81
2023/12/04 10:44:26;;;;;;;1.23;1.13;;;2.10;99.90;;;;;;5053857;28;20053;-83
2023/12/04 10:46:57;;;;;;;2.22;1.73;;;2.30;99.90;;;;;;5048832;28;20107;-81
2023/12/04 10:49:27;;;;;;;2.67;1.13;;;2.40;99.90;;;;;;5051680;28;20492;-82
2023/12/04 10:52:01;;;;;;;1.58;1.10;;;2.50;99.90;;;;;;5053102;28;20056;-80
2023/12/04 10:54:28;;;;;;;1.77;1.30;;;2.70;99.90;;;;;;5048241;28;20045;-82
2023/12/04 10:57:03;;;;;;;1.10;1.00;;;2.70;99.90;;;;;;5048352;28;20116;-84
2023/12/04 10:59:36;;;;;;;0.80;0.80;;;2.80;99.90;;;;;;5043887;28;20056;-80
2023/12/04 11:02:05;;;;;;;1.73;1.15;;;2.90;99.90;;;;;;5049247;28;20049;-82
2023/12/04 11:04:35;;;;;;;1.33;1.05;;;3.10;99.90;;;;;;5054279;28;20052;-80
2023/12/04 11:07:06;;;;;;;2.08;1.00;;;3.20;99.90;;;;;;5053253;28;20099;-81
2023/12/04 11:09:35;;;;;;;1.35;1.10;;;3.30;99.90;;;;;;5047919;28;20543;-79
2023/12/04 11:12:05;;;;;;;1.35;1.00;;;3.40;99.90;;;;;;5051389;28;20053;-82
2023/12/04 11:14:42;;;;;;;1.17;0.90;;;3.40;99.90;;;;;;5050831;28;20045;-82
2023/12/04 11:17:12;;;;;;;2.30;1.08;;;3.50;99.90;;;;;;5022062;28;20044;-82
2023/12/04 11:19:55;;;;;;;1.92;1.25;;;3.50;99.90;;;;;;5050872;28;20107;-81
2023/12/04 11:22:25;;;;;;;1.33;1.05;;;3.50;99.90;;;;;;5048567;28;20084;-80
2023/12/04 11:24:52;;;;;;;3.63;1.13;;;3.60;99.90;;;;;;5053734;28;20373;-83
2023/12/04 11:27:20;;;;;;;2.42;0.90;;;3.60;99.90;;;;;;5052667;28;20574;-81
2023/12/04 11:29:49;;;;;;;1.67;0.85;;;3.60;99.90;;;;;;5054392;28;20080;-80
2023/12/04 11:32:16;;;;;;;2.30;1.08;;;3.70;99.90;;;;;;5051828;28;20319;-81
2023/12/04 11:34:51;;;;;;;1.50;1.40;;;3.70;99.90;;;;;;5031194;28;20500;-79
2023/12/04 11:37:21;;;;;;;3.85;1.60;;;3.70;99.90;;;;;;5052530;28;20505;-81
2023/12/04 11:39:49;;;;;;;1.95;1.20;;;3.70;99.90;;;;;;5053524;28;20471;-81
2023/12/04 11:42:21;;;;;;;1.70;1.58;;;3.80;99.90;;;;;;5051051;28;20053;-81
2023/12/04 11:44:49;;;;;;;3.58;1.80;;;3.80;99.90;;;;;;5052767;28;20079;-82
2023/12/04 11:47:17;;;;;;;4.90;1.25;;;3.90;99.90;;;;;;5053516;28;20370;-80
2023/12/04 11:49:45;;;;;;;1.27;1.17;;;3.90;99.90;;;;;;5047825;28;20110;-80
2023/12/04 11:52:11;;;;;;;1.85;1.13;;;3.90;99.90;;;;;;5048161;28;20053;-82
2023/12/04 11:55:04;;;;;;;0.85;0.77;;;4.00;99.90;;;;;;5054788;28;20107;-81
2023/12/04 11:57:36;;;;;;;1.23;1.08;;;4.00;99.90;;;;;;5053317;28;20057;-84
2023/12/04 12:00:16;;;;;;;1.70;1.27;;;4.10;99.90;;;;;;5049757;28;20060;-83
2023/12/04 12:03:01;;;;;;;1.63;1.02;;;4.10;99.90;;;;;;5053440;28;20055;-80
2023/12/04 12:05:49;;;;;;;1.48;1.00;;;4.20;99.90;;;;;;5053710;28;20045;-81
2023/12/04 12:08:17;;;;;;;1.47;0.80;;;4.30;99.90;;;;;;5024043;28;20484;-80
2023/12/04 12:10:45;;;;;;;1.15;0.80;;;4.30;99.90;;;;;;5037086;28;20057;-81
2023/12/04 12:13:12;;;;;;;1.13;1.00;;;4.30;99.90;;;;;;5034365;28;20049;-80
2023/12/04 12:15:39;;;;;;;2.47;1.33;;;4.40;99.90;;;;;;5053080;28;20053;-80
2023/12/04 12:18:06;;;;;;;1.10;0.70;;;4.40;99.90;;;;;;5053325;28;20528;-83
2023/12/04 12:20:36;;;;;;;1.13;1.00;;;4.40;99.90;;;;;;5032895;28;20046;-82
2023/12/04 12:23:03;;;;;;;2.88;1.00;;;4.50;99.90;;;;;;5052018;28;20049;-80
2023/12/04 12:25:30;;;;;;;1.90;1.20;;;4.50;99.90;;;;;;5052934;28;20059;-82
2023/12/04 12:27:57;;;;;;;3.80;1.00;;;4.50;99.90;;;;;;5049213;28;20170;-82
2023/12/04 12:30:24;;;;;;;2.13;0.90;;;4.60;99.90;;;;;;5055850;28;20056;-82
2023/12/04 12:32:51;;;;;;;2.58;2.20;;;4.60;99.90;;;;;;5055369;28;20041;-80
2023/12/04 12:35:18;;;;;;;3.08;2.05;;;4.70;99.90;;;;;;5055462;28;20420;-81
2023/12/04 12:37:46;;;;;;;1.80;1.13;;;4.60;99.90;;;;;;5053872;28;20504;-81
2023/12/04 12:40:14;;;;;;;1.02;0.93;;;4.70;99.90;;;;;;5055640;28;20055;-82
2023/12/04 12:42:44;;;;;;;1.35;0.90;;;4.70;99.90;;;;;;5054264;28;20098;-84